Time;durP1;ratioP1;P1;durP2;ratioP2;P2;SDS_P1;SDS_P2;PMS_P1;PMS_P2;Temp;Humidity;BMP_temperature;BMP_pressure;BME280_temperature;BME280_humidity;BME280_pressure;Samples;Min_cycle;Max_cycle;Signal;HPM_P1;HPM_P2
2021/06/28 00:02:04;;;;;;;;;;;17.10;97.70;;;;;;5049175;28;19920;-88
2021/06/28 00:04:31;;;;;;;;;;;17.00;97.50;;;;;;5049731;28;19928;-88
2021/06/28 00:06:56;;;;;;;;;;;17.00;97.70;;;;;;5049775;28;20286;-89
2021/06/28 00:09:22;;;;;;;;;;;17.00;97.80;;;;;;5051426;28;20004;-88
2021/06/28 00:11:48;;;;;;;;;;;17.00;97.80;;;;;;5050502;28;20276;-88
2021/06/28 00:14:21;;;;;;;;;;;16.90;98.00;;;;;;5052069;28;19913;-88
2021/06/28 00:16:46;;;;;;;;;;;16.90;98.00;;;;;;5050750;28;19920;-88
2021/06/28 00:19:15;;;;;;;;;;;16.80;98.00;;;;;;5049522;28;19920;-88
2021/06/28 00:21:41;;;;;;;;;;;16.70;98.00;;;;;;5050022;28;19944;-87
2021/06/28 00:24:07;;;;;;;;;;;16.70;97.90;;;;;;5048870;28;19955;-87
2021/06/28 00:26:32;;;;;;;;;;;16.70;97.70;;;;;;5051335;28;19912;-86
2021/06/28 00:28:58;;;;;;;;;;;16.60;97.60;;;;;;5051925;28;19943;-85
2021/06/28 00:31:23;;;;;;;;;;;16.60;97.60;;;;;;5048745;28;19968;-85
2021/06/28 00:33:49;;;;;;;;;;;16.60;97.60;;;;;;5050882;28;19917;-85
2021/06/28 00:36:15;;;;;;;;;;;16.60;97.90;;;;;;5049076;28;19913;-84
2021/06/28 00:38:40;;;;;;;;;;;16.60;98.00;;;;;;5050527;28;19923;-84
2021/06/28 00:41:06;;;;;;;;;;;16.60;97.80;;;;;;5051243;28;20256;-84
2021/06/28 00:43:31;;;;;;;;;;;16.60;98.00;;;;;;5051097;28;19916;-85
2021/06/28 00:45:57;;;;;;;;;;;16.60;97.90;;;;;;5055218;28;19952;-84
2021/06/28 00:48:22;;;;;;;;;;;16.60;97.90;;;;;;5054683;28;19966;-84
2021/06/28 00:50:50;;;;;;;;;;;16.60;97.80;;;;;;5057748;28;19920;-84
2021/06/28 00:53:17;;;;;;;;;;;16.60;97.90;;;;;;5056826;28;19931;-85
2021/06/28 00:55:45;;;;;;;;;;;16.60;97.80;;;;;;5057074;28;19913;-85
2021/06/28 00:58:12;;;;;;;;;;;16.50;98.00;;;;;;5057992;28;19921;-87
2021/06/28 01:00:38;;;;;;;;;;;16.50;98.00;;;;;;5056812;28;19920;-86
2021/06/28 01:03:03;;;;;;;;;;;16.50;98.00;;;;;;5054983;28;19928;-86
2021/06/28 01:05:32;;;;;;;;;;;16.50;97.90;;;;;;5055100;28;19991;-86
2021/06/28 01:07:58;;;;;;;;;;;16.40;98.00;;;;;;5056610;28;19921;-85
2021/06/28 01:10:24;;;;;;;;;;;16.30;98.00;;;;;;5056886;28;20004;-86
2021/06/28 01:12:50;;;;;;;;;;;16.30;98.00;;;;;;5056058;28;20011;-86
2021/06/28 01:15:16;;;;;;;;;;;16.30;98.00;;;;;;5055867;28;19921;-86
2021/06/28 01:17:42;;;;;;;;;;;16.20;97.90;;;;;;5054564;28;19952;-86
2021/06/28 01:20:09;;;;;;;;;;;16.20;97.90;;;;;;5056804;28;19963;-86
2021/06/28 01:22:35;;;;;;;;;;;16.20;97.90;;;;;;5056567;28;19924;-85
2021/06/28 01:25:02;;;;;;;;;;;16.10;98.00;;;;;;5055655;28;19925;-86
2021/06/28 01:27:28;;;;;;;;;;;16.10;97.90;;;;;;5056044;28;20386;-86
2021/06/28 01:29:55;;;;;;;;;;;16.10;98.00;;;;;;5058441;28;20008;-85
2021/06/28 01:32:24;;;;;;;;;;;16.00;98.00;;;;;;5054467;28;19920;-85
2021/06/28 01:34:50;;;;;;;;;;;16.00;98.00;;;;;;5053355;28;19940;-86
2021/06/28 01:37:18;;;;;;;;;;;16.00;98.00;;;;;;5057593;28;19920;-86
2021/06/28 01:39:44;;;;;;;;;;;16.00;98.00;;;;;;5047901;28;20309;-85
2021/06/28 01:42:10;;;;;;;;;;;15.90;98.00;;;;;;5055418;28;19913;-86
2021/06/28 01:44:35;;;;;;;;;;;15.90;98.00;;;;;;5057890;28;20324;-85
2021/06/28 01:47:01;;;;;;;;;;;15.90;97.80;;;;;;5056467;28;19920;-86
2021/06/28 01:49:27;;;;;;;;;;;15.90;97.70;;;;;;5055012;28;19948;-86
2021/06/28 01:51:52;;;;;;;;;;;15.80;97.50;;;;;;5057396;28;20282;-86
2021/06/28 01:54:18;;;;;;;;;;;15.90;97.30;;;;;;5055247;28;20023;-85
2021/06/28 01:56:44;;;;;;;;;;;15.80;97.80;;;;;;5055497;28;20216;-85
2021/06/28 01:59:12;;;;;;;;;;;15.80;97.50;;;;;;5054501;28;20224;-86
2021/06/28 02:01:38;;;;;;;;;;;15.80;97.60;;;;;;5052116;28;20241;-86
2021/06/28 02:04:04;;;;;;;;;;;15.80;97.60;;;;;;5051736;28;19927;-85
2021/06/28 02:06:30;;;;;;;;;;;15.70;97.80;;;;;;5052815;28;19916;-86
2021/06/28 02:08:55;;;;;;;;;;;15.70;97.80;;;;;;5051247;28;20051;-86
2021/06/28 02:11:21;;;;;;;;;;;15.70;97.60;;;;;;5052864;28;20297;-84
2021/06/28 02:13:46;;;;;;;;;;;15.70;97.50;;;;;;5053105;28;19931;-85
2021/06/28 02:16:12;;;;;;;;;;;15.60;97.70;;;;;;5052900;28;20248;-85
2021/06/28 02:18:37;;;;;;;;;;;15.60;97.60;;;;;;5053447;28;19913;-86
2021/06/28 02:21:03;;;;;;;;;;;15.60;97.70;;;;;;5052824;28;19952;-85
2021/06/28 02:23:36;;;;;;;;;;;15.50;97.70;;;;;;5052323;28;19925;-86
2021/06/28 02:26:05;;;;;;;;;;;15.50;97.70;;;;;;5053238;28;19920;-85
2021/06/28 02:28:31;;;;;;;;;;;15.50;98.00;;;;;;5053112;28;19916;-85
2021/06/28 02:30:57;;;;;;;;;;;15.50;98.00;;;;;;5052857;28;19912;-85
2021/06/28 02:33:23;;;;;;;;;;;15.50;98.00;;;;;;5052066;28;19920;-85
2021/06/28 02:35:49;;;;;;;;;;;15.50;98.00;;;;;;5051391;28;20256;-86
2021/06/28 02:38:15;;;;;;;;;;;15.50;98.00;;;;;;5051295;28;20221;-85
2021/06/28 02:40:41;;;;;;;;;;;15.50;98.00;;;;;;5053656;28;19931;-86
2021/06/28 02:43:06;;;;;;;;;;;15.50;98.00;;;;;;5052866;28;20218;-85
2021/06/28 02:45:32;;;;;;;;;;;15.40;98.00;;;;;;5051873;28;19920;-85
2021/06/28 02:47:58;;;;;;;;;;;15.40;98.00;;;;;;5052556;28;19934;-85
2021/06/28 02:50:23;;;;;;;;;;;15.40;98.00;;;;;;5048557;28;19982;-86
2021/06/28 02:52:49;;;;;;;;;;;15.40;98.00;;;;;;5051680;28;19921;-84
2021/06/28 02:55:14;;;;;;;;;;;15.40;98.00;;;;;;5052570;28;19960;-85
2021/06/28 02:57:41;;;;;;;;;;;15.40;98.00;;;;;;5051378;28;19919;-85
2021/06/28 03:00:11;;;;;;;;;;;15.50;98.00;;;;;;5053554;28;19919;-85
2021/06/28 03:02:36;;;;;;;;;;;15.40;98.00;;;;;;5051015;28;19913;-85
2021/06/28 03:05:06;;;;;;;;;;;15.40;98.00;;;;;;5049851;28;19913;-85
2021/06/28 03:07:32;;;;;;;;;;;15.50;98.00;;;;;;5051579;28;19919;-85
2021/06/28 03:09:58;;;;;;;;;;;15.50;98.00;;;;;;5051677;28;19913;-86
2021/06/28 03:12:23;;;;;;;;;;;15.50;98.00;;;;;;5054505;28;20000;-85
2021/06/28 03:14:49;;;;;;;;;;;15.50;98.00;;;;;;5053343;28;19917;-85
2021/06/28 03:17:14;;;;;;;;;;;15.50;98.00;;;;;;5051244;28;19979;-85
2021/06/28 03:19:40;;;;;;;;;;;15.50;98.00;;;;;;5049738;28;19963;-85
2021/06/28 03:22:06;;;;;;;;;;;15.50;98.00;;;;;;5053350;28;19962;-85
2021/06/28 03:24:31;;;;;;;;;;;15.50;98.00;;;;;;5050845;28;19962;-85
2021/06/28 03:26:57;;;;;;;;;;;15.50;98.00;;;;;;5051215;28;20384;-85
2021/06/28 03:29:23;;;;;;;;;;;15.60;98.00;;;;;;5051027;28;19917;-85
2021/06/28 03:31:48;;;;;;;;;;;15.70;98.00;;;;;;5050075;28;19913;-85
2021/06/28 03:34:14;;;;;;;;;;;15.60;98.00;;;;;;5050943;28;20572;-86
2021/06/28 03:36:41;;;;;;;;;;;15.60;98.00;;;;;;5051095;28;19921;-86
2021/06/28 03:39:07;;;;;;;;;;;15.60;98.00;;;;;;5052285;28;19913;-85
2021/06/28 03:41:33;;;;;;;;;;;15.60;98.00;;;;;;5049779;28;19924;-85
2021/06/28 03:43:59;;;;;;;;;;;15.60;98.00;;;;;;5050629;28;19928;-85
2021/06/28 03:46:24;;;;;;;;;;;15.50;98.00;;;;;;5052625;28;19921;-85
2021/06/28 03:48:50;;;;;;;;;;;15.50;98.00;;;;;;5050542;28;19921;-85
2021/06/28 03:51:15;;;;;;;;;;;15.50;98.00;;;;;;5047886;28;19912;-85
2021/06/28 03:53:41;;;;;;;;;;;15.50;98.00;;;;;;5051921;28;20026;-84
2021/06/28 03:56:06;;;;;;;;;;;15.40;98.00;;;;;;5050004;28;19919;-86
2021/06/28 03:58:36;;;;;;;;;;;15.40;98.00;;;;;;5050591;28;19916;-86
2021/06/28 04:01:02;;;;;;;;;;;15.40;98.00;;;;;;5049324;28;19920;-86
2021/06/28 04:03:29;;;;;;;;;;;15.50;98.00;;;;;;5051711;28;19921;-86
2021/06/28 04:05:55;;;;;;;;;;;15.50;98.00;;;;;;5050513;28;19921;-85
2021/06/28 04:08:21;;;;;;;;;;;15.50;98.00;;;;;;5049696;28;19980;-85
2021/06/28 04:10:46;;;;;;;;;;;15.50;98.00;;;;;;5049096;28;19952;-85
2021/06/28 04:13:12;;;;;;;;;;;15.50;98.00;;;;;;5050534;28;19912;-85
2021/06/28 04:15:37;;;;;;;;;;;15.50;98.00;;;;;;5049468;28;19919;-86
2021/06/28 04:18:03;;;;;;;;;;;15.60;98.00;;;;;;5050858;28;19913;-84
2021/06/28 04:20:28;;;;;;;;;;;15.60;98.00;;;;;;5047968;28;20217;-85
2021/06/28 04:22:54;;;;;;;;;;;15.70;98.00;;;;;;5051236;28;19924;-85
2021/06/28 04:25:20;;;;;;;;;;;15.70;98.00;;;;;;5049629;28;19923;-86
2021/06/28 04:27:47;;;;;;;;;;;15.90;98.00;;;;;;5050147;28;20335;-85
2021/06/28 04:30:16;;;;;;;;;;;16.00;98.00;;;;;;5047623;28;19970;-85
2021/06/28 04:32:41;;;;;;;;;;;16.10;98.00;;;;;;5048456;28;20355;-85
2021/06/28 04:35:08;;;;;;;;;;;16.20;98.00;;;;;;5050260;28;19967;-85
2021/06/28 04:37:34;;;;;;;;;;;16.30;98.00;;;;;;5050744;28;20390;-85
2021/06/28 04:40:00;;;;;;;;;;;16.30;98.00;;;;;;5050634;28;19947;-85
2021/06/28 04:42:25;;;;;;;;;;;16.40;98.00;;;;;;5049298;28;20296;-86
2021/06/28 04:44:51;;;;;;;;;;;16.40;98.00;;;;;;5050705;28;20052;-85
2021/06/28 04:47:17;;;;;;;;;;;16.50;97.50;;;;;;5048088;28;19913;-85
2021/06/28 04:49:42;;;;;;;;;;;16.70;96.90;;;;;;5048155;28;19921;-86
2021/06/28 04:52:08;;;;;;;;;;;16.80;97.40;;;;;;5048100;28;19920;-86
2021/06/28 04:54:33;;;;;;;;;;;16.90;97.90;;;;;;5048360;28;19919;-86
2021/06/28 04:56:59;;;;;;;;;;;16.90;97.90;;;;;;5046993;28;19912;-86
2021/06/28 04:59:24;;;;;;;;;;;16.80;97.80;;;;;;5050775;28;19916;-87
2021/06/28 05:01:50;;;;;;;;;;;16.80;98.00;;;;;;5049166;28;20273;-85
2021/06/28 05:04:15;;;;;;;;;;;16.80;98.00;;;;;;5048912;28;20020;-86
2021/06/28 05:06:47;;;;;;;;;;;16.80;98.00;;;;;;5047708;28;20006;-85
2021/06/28 05:09:12;;;;;;;;;;;16.80;97.70;;;;;;5049387;28;20221;-86
2021/06/28 05:11:38;;;;;;;;;;;16.80;97.70;;;;;;5049456;28;19920;-85
2021/06/28 05:14:04;;;;;;;;;;;16.90;97.90;;;;;;5052026;28;20386;-86
2021/06/28 05:16:29;;;;;;;;;;;17.00;97.90;;;;;;5047972;28;19913;-86
2021/06/28 05:18:55;;;;;;;;;;;17.20;97.70;;;;;;5055258;28;20225;-86
2021/06/28 05:21:20;;;;;;;;;;;17.20;97.70;;;;;;5044306;28;19912;-86
2021/06/28 05:23:46;;;;;;;;;;;17.30;97.50;;;;;;5041448;28;19917;-86
2021/06/28 05:26:11;;;;;;;;;;;17.50;97.30;;;;;;5039951;28;19913;-85
2021/06/28 05:28:37;;;;;;;;;;;17.60;96.90;;;;;;5037743;28;19920;-86
2021/06/28 05:31:03;;;;;;;;;;;17.70;97.00;;;;;;5049804;28;19921;-86
2021/06/28 05:33:29;;;;;;;;;;;17.90;96.90;;;;;;5053865;28;20285;-85
2021/06/28 05:35:55;;;;;;;;;;;18.10;96.70;;;;;;5053804;28;20003;-85
2021/06/28 05:38:20;;;;;;;;;;;18.30;96.40;;;;;;5054495;28;19937;-86
2021/06/28 05:40:46;;;;;;;;;;;18.50;96.00;;;;;;5052961;28;20228;-85
2021/06/28 05:43:11;;;;;;;;;;;18.50;95.90;;;;;;5054547;28;19925;-86
2021/06/28 05:45:37;;;;;;;;;;;18.80;95.40;;;;;;5054749;28;19913;-85
2021/06/28 05:48:03;;;;;;;;;;;18.80;95.30;;;;;;5054525;28;20241;-86
2021/06/28 05:50:28;;;;;;;;;;;18.90;95.20;;;;;;5051645;28;20340;-85
2021/06/28 05:52:56;;;;;;;;;;;19.00;95.10;;;;;;5053904;28;19935;-85
2021/06/28 05:55:22;;;;;;;;;;;19.10;95.50;;;;;;5053751;28;19978;-85
2021/06/28 05:57:47;;;;;;;;;;;19.20;95.50;;;;;;5053399;28;19925;-85
2021/06/28 06:00:13;;;;;;;;;;;19.30;95.20;;;;;;5049449;28;19920;-85
2021/06/28 06:02:39;;;;;;;;;;;19.40;95.00;;;;;;5054262;28;19913;-85
2021/06/28 06:05:08;;;;;;;;;;;19.40;95.10;;;;;;5051287;28;19912;-87
2021/06/28 06:07:36;;;;;;;;;;;19.60;95.00;;;;;;5058391;28;19959;-86
2021/06/28 06:10:06;;;;;;;;;;;19.90;94.30;;;;;;5058964;28;20320;-86
2021/06/28 06:12:31;;;;;;;;;;;20.10;94.20;;;;;;5057234;28;20221;-86
2021/06/28 06:14:57;;;;;;;;;;;20.30;94.00;;;;;;5058790;28;19916;-86
2021/06/28 06:17:22;;;;;;;;;;;20.40;93.60;;;;;;5046756;28;19909;-87
2021/06/28 06:19:48;;;;;;;;;;;20.50;93.20;;;;;;5046134;28;20341;-86
2021/06/28 06:22:14;;;;;;;;;;;20.50;93.20;;;;;;5049158;28;19919;-86
2021/06/28 06:24:40;;;;;;;;;;;20.40;93.50;;;;;;5058646;28;19967;-86
2021/06/28 06:27:07;;;;;;;;;;;20.50;93.30;;;;;;5057237;28;19913;-86
2021/06/28 06:29:33;;;;;;;;;;;20.70;92.60;;;;;;5058610;28;19920;-87
2021/06/28 06:31:58;;;;;;;;;;;21.00;92.60;;;;;;5051990;28;19920;-87
2021/06/28 06:34:24;;;;;;;;;;;21.30;92.30;;;;;;5057068;28;19912;-86
2021/06/28 06:36:51;;;;;;;;;;;21.40;91.60;;;;;;5057774;28;20003;-86
2021/06/28 06:39:17;;;;;;;;;;;21.60;90.50;;;;;;5058095;28;19913;-86
2021/06/28 06:41:43;;;;;;;;;;;21.80;90.80;;;;;;5052198;28;19920;-86
2021/06/28 06:44:08;;;;;;;;;;;21.70;91.00;;;;;;5041561;28;20329;-86
2021/06/28 06:46:35;;;;;;;;;;;21.50;91.40;;;;;;5039130;28;19913;-87
2021/06/28 06:49:00;;;;;;;;;;;21.70;91.10;;;;;;5055293;28;19916;-88
2021/06/28 06:51:26;;;;;;;;;;;21.90;91.30;;;;;;5055996;28;19933;-86
2021/06/28 06:53:52;;;;;;;;;;;22.20;92.30;;;;;;5073475;28;19917;-87
2021/06/28 06:56:17;;;;;;;;;;;22.20;92.30;;;;;;5057735;28;19913;-86
2021/06/28 06:58:43;;;;;;;;;;;22.20;92.50;;;;;;5057788;28;19920;-86
2021/06/28 07:01:12;;;;;;;;;;;22.00;93.10;;;;;;5056513;28;19917;-87
2021/06/28 07:03:37;;;;;;;;;;;22.20;93.10;;;;;;5056917;28;19951;-86
2021/06/28 07:06:03;;;;;;;;;;;22.40;92.80;;;;;;5040904;28;20302;-86
2021/06/28 07:08:29;;;;;;;;;;;22.60;92.40;;;;;;5053791;28;20008;-86
2021/06/28 07:10:57;;;;;;;;;;;22.50;92.60;;;;;;5054669;28;19913;-86
2021/06/28 07:13:23;;;;;;;;;;;22.40;92.80;;;;;;5049387;28;19912;-86
2021/06/28 07:15:48;;;;;;;;;;;22.20;93.30;;;;;;5056742;28;19908;-85
2021/06/28 07:18:14;;;;;;;;;;;22.10;93.30;;;;;;5057534;28;19923;-85
2021/06/28 07:20:39;;;;;;;;;;;22.20;93.20;;;;;;5051323;28;19940;-85
2021/06/28 07:23:05;;;;;;;;;;;22.20;93.10;;;;;;5057207;28;20011;-85
2021/06/28 07:25:31;;;;;;;;;;;22.20;93.20;;;;;;5056172;28;20373;-85
2021/06/28 07:27:57;;;;;;;;;;;22.80;92.90;;;;;;5057479;28;19909;-85
2021/06/28 07:30:23;;;;;;;;;;;23.70;90.90;;;;;;5056287;28;19913;-85
2021/06/28 07:32:50;;;;;;;;;;;24.90;88.70;;;;;;5056345;28;19909;-86
2021/06/28 07:35:16;;;;;;;;;;;25.80;85.10;;;;;;5054057;28;19965;-85
2021/06/28 07:37:42;;;;;;;;;;;26.80;82.20;;;;;;5056464;28;20322;-86
2021/06/28 07:40:09;;;;;;;;;;;27.20;79.30;;;;;;5056728;28;20394;-86
2021/06/28 07:42:35;;;;;;;;;;;27.50;80.00;;;;;;5057262;28;19909;-85
2021/06/28 07:45:04;;;;;;;;;;;27.70;79.40;;;;;;5056980;28;19920;-85
2021/06/28 07:47:30;;;;;;;;;;;27.50;80.40;;;;;;5056527;28;20003;-86
2021/06/28 07:49:58;;;;;;;;;;;27.40;80.70;;;;;;5055361;28;19921;-86
2021/06/28 07:52:23;;;;;;;;;;;27.30;81.10;;;;;;5056440;28;19916;-86
2021/06/28 07:54:49;;;;;;;;;;;27.50;80.60;;;;;;5055927;28;20422;-86
2021/06/28 07:57:14;;;;;;;;;;;27.90;80.40;;;;;;5056321;28;20247;-86
2021/06/28 07:59:40;;;;;;;;;;;28.20;78.90;;;;;;5056642;28;19952;-86
2021/06/28 08:02:05;;;;;;;;;;;28.20;78.90;;;;;;5057022;28;19913;-86
2021/06/28 08:04:31;;;;;;;;;;;28.10;79.80;;;;;;5055224;28;19921;-86
2021/06/28 08:06:57;;;;;;;;;;;28.20;79.70;;;;;;5042103;28;19967;-86
2021/06/28 08:09:23;;;;;;;;;;;28.70;78.50;;;;;;5046248;28;19917;-86
2021/06/28 08:11:48;;;;;;;;;;;28.60;79.20;;;;;;5050476;28;20309;-86
2021/06/28 08:14:15;;;;;;;;;;;28.30;79.90;;;;;;5045627;28;19917;-87
2021/06/28 08:16:41;;;;;;;;;;;28.50;79.40;;;;;;5055934;28;20317;-86
2021/06/28 08:19:07;;;;;;;;;;;28.30;79.70;;;;;;5056550;28;19909;-86
2021/06/28 08:21:33;;;;;;;;;;;28.60;78.30;;;;;;5070687;28;20122;-85
2021/06/28 08:23:59;;;;;;;;;;;28.70;78.80;;;;;;5055560;28;20580;-86
2021/06/28 08:26:25;;;;;;;;;;;28.90;77.50;;;;;;5056490;28;19915;-86
2021/06/28 08:28:50;;;;;;;;;;;29.00;77.60;;;;;;5055416;28;20317;-86
2021/06/28 08:31:16;;;;;;;;;;;29.30;76.20;;;;;;5055005;28;19915;-85
2021/06/28 08:33:43;;;;;;;;;;;29.10;77.30;;;;;;5056426;28;19974;-86
2021/06/28 08:36:09;;;;;;;;;;;29.30;77.90;;;;;;5055331;28;19931;-86
2021/06/28 08:38:34;;;;;;;;;;;29.60;76.30;;;;;;5037396;28;20333;-86
2021/06/28 08:41:00;;;;;;;;;;;29.20;76.80;;;;;;5036305;28;19909;-86
2021/06/28 08:43:25;;;;;;;;;;;29.30;77.30;;;;;;5036910;28;20015;-85
2021/06/28 08:45:53;;;;;;;;;;;29.30;77.00;;;;;;5050532;28;19917;-86
2021/06/28 08:48:19;;;;;;;;;;;29.50;76.00;;;;;;5056158;28;19909;-85
2021/06/28 08:50:45;;;;;;;;;;;29.50;75.50;;;;;;5055074;28;19923;-86
2021/06/28 08:53:11;;;;;;;;;;;29.30;76.10;;;;;;5055502;28;19916;-86
2021/06/28 08:55:39;;;;;;;;;;;29.30;77.30;;;;;;5056277;28;19919;-86
2021/06/28 08:58:05;;;;;;;;;;;29.50;76.70;;;;;;5056262;28;20019;-86
2021/06/28 09:00:30;;;;;;;;;;;29.60;75.60;;;;;;5056262;28;20307;-86
2021/06/28 09:02:56;;;;;;;;;;;29.50;76.70;;;;;;5042230;28;19921;-86
2021/06/28 09:05:22;;;;;;;;;;;30.50;75.00;;;;;;5034201;28;19913;-86
2021/06/28 09:07:48;;;;;;;;;;;31.00;72.20;;;;;;5040423;28;19916;-86
2021/06/28 09:10:34;;;;;;;;;;;31.30;71.90;;;;;;5040153;28;19909;-86
2021/06/28 09:13:00;;;;;;;;;;;31.20;71.90;;;;;;5053274;28;19916;-86
2021/06/28 09:15:52;;;;;;;;;;;31.50;70.90;;;;;;5053004;28;19996;-85
2021/06/28 09:18:21;;;;;;;;;;;31.20;71.40;;;;;;5039103;28;20302;-86
2021/06/28 09:20:47;;;;;;;;;;;30.50;72.60;;;;;;5057949;28;20218;-86
2021/06/28 09:23:39;;;;;;;;;;;30.60;73.90;;;;;;5059880;28;19917;-86
2021/06/28 09:26:14;;;;;;;;;;;30.80;72.00;;;;;;5057775;28;19947;-85
2021/06/28 09:28:42;;;;;;;;;;;30.00;73.00;;;;;;5059029;28;19959;-85
2021/06/28 09:31:08;;;;;;;;;;;29.80;74.50;;;;;;5059629;28;19913;-85
2021/06/28 09:33:34;;;;;;;;;;;30.40;72.30;;;;;;5059772;28;19915;-85
2021/06/28 09:35:59;;;;;;;;;;;30.90;71.50;;;;;;5058447;28;19913;-85
2021/06/28 09:38:38;;;;;;;;;;;31.10;69.60;;;;;;5059200;28;19915;-85
2021/06/28 09:41:19;;;;;;;;;;;31.50;67.80;;;;;;5045194;28;19913;-87
2021/06/28 09:43:45;;;;;;;;;;;31.50;67.50;;;;;;5059273;28;19956;-87
2021/06/28 09:46:18;;;;;;;;;;;32.20;65.50;;;;;;5059492;28;19963;-86
2021/06/28 09:48:48;;;;;;;;;;;32.40;66.00;;;;;;5058605;28;19944;-86
2021/06/28 09:51:25;;;;;;;;;;;32.20;65.40;;;;;;5057058;28;19919;-86
2021/06/28 09:53:52;;;;;;;;;;;31.90;66.80;;;;;;5059274;28;19908;-86
2021/06/28 09:56:31;;;;;;;;;;;31.50;66.50;;;;;;5059385;28;20256;-85
2021/06/28 09:58:56;;;;;;;;;;;31.30;67.10;;;;;;5055092;28;19972;-85
2021/06/28 10:01:25;;;;;;;;;;;31.30;67.30;;;;;;5039284;28;20006;-85
2021/06/28 10:03:53;;;;;;;;;;;31.70;65.90;;;;;;5056373;28;19917;-86
2021/06/28 10:08:51;;;;;;;;;;;30.90;66.90;;;;;;5059156;28;19909;-86
2021/06/28 10:11:18;;;;;;;;;;;30.60;65.70;;;;;;5058584;28;19913;-85
2021/06/28 10:13:53;;;;;;;;;;;30.90;67.70;;;;;;5056736;28;20281;-86
2021/06/28 10:16:21;;;;;;;;;;;30.90;66.00;;;;;;5059165;28;19961;-85
2021/06/28 10:18:47;;;;;;;;;;;31.20;66.50;;;;;;5058288;28;19909;-86
2021/06/28 10:21:12;;;;;;;;;;;31.20;66.70;;;;;;5057724;28;19909;-85
2021/06/28 10:23:38;;;;;;;;;;;31.50;66.30;;;;;;5054246;28;19989;-86
2021/06/28 10:26:04;;;;;;;;;;;31.30;66.00;;;;;;5058415;28;19936;-85
2021/06/28 10:28:30;;;;;;;;;;;30.80;67.70;;;;;;5058607;28;20194;-86
2021/06/28 10:31:00;;;;;;;;;;;31.20;66.40;;;;;;5057705;28;19963;-86
2021/06/28 10:33:25;;;;;;;;;;;31.20;67.60;;;;;;5043840;28;19909;-86
2021/06/28 10:35:58;;;;;;;;;;;31.10;65.40;;;;;;5037494;28;19913;-85
2021/06/28 10:38:23;;;;;;;;;;;30.80;66.80;;;;;;5037574;28;19975;-86
2021/06/28 10:40:51;;;;;;;;;;;30.80;66.70;;;;;;5043508;28;20329;-85
2021/06/28 10:43:25;;;;;;;;;;;30.90;66.30;;;;;;5045859;28;19967;-85
2021/06/28 10:45:51;;;;;;;;;;;30.80;67.60;;;;;;5055885;28;20298;-88
2021/06/28 10:48:21;;;;;;;;;;;31.30;66.80;;;;;;5057207;28;20003;-86
2021/06/28 10:50:51;;;;;;;;;;;31.50;67.30;;;;;;5057165;28;19955;-86
2021/06/28 10:53:28;;;;;;;;;;;32.00;65.20;;;;;;5045911;28;19967;-86
2021/06/28 10:55:54;;;;;;;;;;;31.90;64.70;;;;;;5046867;28;19919;-86
2021/06/28 10:58:27;;;;;;;;;;;31.90;65.40;;;;;;5057699;28;20007;-87
2021/06/28 11:01:02;;;;;;;;;;;31.60;66.00;;;;;;5058152;28;19912;-85
2021/06/28 11:03:34;;;;;;;;;;;31.20;66.50;;;;;;5042870;28;19928;-86
2021/06/28 11:06:06;;;;;;;;;;;31.20;66.40;;;;;;5042692;28;20000;-86
2021/06/28 11:08:31;;;;;;;;;;;31.60;65.80;;;;;;5037935;28;19913;-86
2021/06/28 11:10:57;;;;;;;;;;;31.70;67.40;;;;;;5042958;28;19913;-85
2021/06/28 11:13:28;;;;;;;;;;;32.20;64.60;;;;;;5056667;28;20213;-86
2021/06/28 11:15:53;;;;;;;;;;;32.30;64.00;;;;;;5057197;28;20256;-86
2021/06/28 11:18:29;;;;;;;;;;;32.00;63.70;;;;;;5056621;28;19909;-86
2021/06/28 11:20:55;;;;;;;;;;;31.40;66.10;;;;;;5056810;28;20209;-87
2021/06/28 11:23:20;;;;;;;;;;;31.70;65.60;;;;;;5057682;28;19999;-86
2021/06/28 11:25:56;;;;;;;;;;;31.80;64.50;;;;;;5048179;28;20333;-86
2021/06/28 11:28:23;;;;;;;;;;;31.70;64.90;;;;;;5036374;28;19914;-86
2021/06/28 11:30:50;;;;;;;;;;;31.30;66.10;;;;;;5043545;28;20306;-87
2021/06/28 11:33:16;;;;;;;;;;;31.30;66.50;;;;;;5057565;28;19916;-86
2021/06/28 11:35:45;;;;;;;;;;;31.70;64.90;;;;;;5054659;28;20309;-86
2021/06/28 11:38:33;;;;;;;;;;;31.10;67.10;;;;;;5048058;28;19936;-87
2021/06/28 11:41:00;;;;;;;;;;;31.20;66.70;;;;;;5047100;28;20008;-86
2021/06/28 11:43:34;;;;;;;;;;;31.40;66.20;;;;;;5055993;28;20607;-86
2021/06/28 11:46:00;;;;;;;;;;;31.80;65.40;;;;;;5056952;28;19940;-87
2021/06/28 11:48:32;;;;;;;;;;;32.20;65.10;;;;;;5055085;28;19967;-87
2021/06/28 11:50:58;;;;;;;;;;;32.50;63.90;;;;;;5056020;28;19923;-87
2021/06/28 11:53:23;;;;;;;;;;;32.60;62.50;;;;;;5056968;28;19996;-86
2021/06/28 11:55:49;;;;;;;;;;;32.80;63.80;;;;;;5055851;28;20016;-86
2021/06/28 11:58:18;;;;;;;;;;;32.90;64.60;;;;;;5056157;28;19935;-86
2021/06/28 12:00:43;;;;;;;;;;;32.40;63.00;;;;;;5043488;28;20317;-87
2021/06/28 12:03:09;;;;;;;;;;;32.50;64.00;;;;;;5056306;28;19967;-87
2021/06/28 12:05:35;;;;;;;;;;;32.70;62.60;;;;;;5052622;28;19909;-87
2021/06/28 12:08:00;;;;;;;;;;;32.40;64.30;;;;;;5056196;28;19916;-86
2021/06/28 12:10:26;;;;;;;;;;;32.30;63.80;;;;;;5040802;28;19917;-86
2021/06/28 12:12:58;;;;;;;;;;;32.40;64.70;;;;;;5043273;28;19913;-85
2021/06/28 12:15:28;;;;;;;;;;;32.40;65.50;;;;;;5056707;28;19970;-86
2021/06/28 12:17:57;;;;;;;;;;;32.40;65.30;;;;;;5055475;28;19916;-87
2021/06/28 12:20:22;;;;;;;;;;;32.40;64.60;;;;;;5045596;28;19917;-86
2021/06/28 12:22:50;;;;;;;;;;;32.00;65.50;;;;;;5055535;28;19932;-86
2021/06/28 12:25:17;;;;;;;;;;;32.80;61.90;;;;;;5054694;28;19909;-85
2021/06/28 12:27:44;;;;;;;;;;;33.30;62.20;;;;;;5040466;28;19959;-85
2021/06/28 12:30:13;;;;;;;;;;;33.40;61.00;;;;;;5039493;28;19912;-85
2021/06/28 12:32:43;;;;;;;;;;;33.10;64.10;;;;;;5055319;28;19917;-86
2021/06/28 12:35:13;;;;;;;;;;;33.00;65.10;;;;;;5054322;28;19917;-87
2021/06/28 12:37:41;;;;;;;;;;;33.40;63.40;;;;;;5046381;28;19917;-87
2021/06/28 12:40:12;;;;;;;;;;;33.20;64.40;;;;;;5042230;28;19909;-86
2021/06/28 12:42:39;;;;;;;;;;;33.30;64.70;;;;;;5056214;28;19916;-87
2021/06/28 12:45:05;;;;;;;;;;;33.60;63.20;;;;;;5055158;28;19913;-87
2021/06/28 12:47:31;;;;;;;;;;;34.10;62.40;;;;;;5056305;28;19913;-87
2021/06/28 12:49:58;;;;;;;;;;;33.80;61.40;;;;;;5054650;28;19916;-87
2021/06/28 12:52:25;;;;;;;;;;;33.80;61.40;;;;;;5056165;28;19916;-86
2021/06/28 12:55:04;;;;;;;;;;;32.90;63.20;;;;;;5054582;28;19913;-86
2021/06/28 12:57:31;;;;;;;;;;;32.50;65.60;;;;;;5056275;28;20241;-87
2021/06/28 12:59:59;;;;;;;;;;;32.20;65.00;;;;;;5055901;28;19913;-86
2021/06/28 13:02:31;;;;;;;;;;;31.70;66.30;;;;;;5055533;28;19920;-86
2021/06/28 13:05:07;;;;;;;;;;;30.90;67.60;;;;;;5046179;28;19966;-86
2021/06/28 13:07:33;;;;;;;;;;;30.90;69.00;;;;;;5036219;28;19921;-87
2021/06/28 13:09:59;;;;;;;;;;;31.60;66.90;;;;;;5049265;28;19916;-87
2021/06/28 13:12:26;;;;;;;;;;;32.30;66.20;;;;;;5056085;28;19909;-85
2021/06/28 13:15:11;;;;;;;;;;;32.20;65.90;;;;;;5055087;28;19919;-86
2021/06/28 13:17:37;;;;;;;;;;;31.70;68.00;;;;;;5055992;28;19916;-87
2021/06/28 13:20:15;;;;;;;;;;;31.50;67.10;;;;;;5054524;28;19913;-86
2021/06/28 13:22:41;;;;;;;;;;;32.00;68.60;;;;;;5056064;28;19996;-87
2021/06/28 13:25:14;;;;;;;;;;;32.70;65.90;;;;;;5053233;28;20033;-86
2021/06/28 13:27:40;;;;;;;;;;;33.50;64.30;;;;;;5055487;28;20001;-87
2021/06/28 13:30:35;;;;;;;;;;;33.10;64.90;;;;;;5055381;28;20349;-86
2021/06/28 13:33:07;;;;;;;;;;;32.50;65.80;;;;;;5039284;28;20278;-85
2021/06/28 13:35:33;;;;;;;;;;;32.60;66.00;;;;;;5048875;28;19922;-86
2021/06/28 13:38:08;;;;;;;;;;;32.30;64.40;;;;;;5042516;28;19967;-85
2021/06/28 13:40:34;;;;;;;;;;;31.50;66.90;;;;;;5055606;28;19913;-86
2021/06/28 13:42:59;;;;;;;;;;;31.40;67.90;;;;;;5055404;28;20004;-86
2021/06/28 13:45:28;;;;;;;;;;;31.80;65.90;;;;;;5054890;28;19978;-85
2021/06/28 13:48:03;;;;;;;;;;;31.80;66.10;;;;;;5055869;28;19951;-85
2021/06/28 13:50:31;;;;;;;;;;;31.50;67.70;;;;;;5034541;28;20274;-86
2021/06/28 13:52:57;;;;;;;;;;;31.90;67.20;;;;;;5036887;28;19909;-86
2021/06/28 13:55:23;;;;;;;;;;;32.30;65.20;;;;;;5057899;28;20007;-86
2021/06/28 13:57:55;;;;;;;;;;;32.70;65.30;;;;;;5059254;28;19913;-85
2021/06/28 14:00:22;;;;;;;;;;;32.60;64.60;;;;;;5057711;28;19913;-86
2021/06/28 14:02:48;;;;;;;;;;;32.50;66.00;;;;;;5056989;28;19920;-85
2021/06/28 14:05:14;;;;;;;;;;;33.10;64.20;;;;;;5056139;28;19917;-86
2021/06/28 14:07:39;;;;;;;;;;;34.00;61.70;;;;;;5058192;28;19909;-87
2021/06/28 14:10:05;;;;;;;;;;;34.00;60.90;;;;;;5058761;28;20007;-87
2021/06/28 14:12:31;;;;;;;;;;;33.80;62.40;;;;;;5057689;28;19924;-86
2021/06/28 14:14:56;;;;;;;;;;;33.60;62.20;;;;;;5053001;28;20309;-87
2021/06/28 14:17:22;;;;;;;;;;;33.10;63.10;;;;;;5058567;28;19913;-87
2021/06/28 14:19:47;;;;;;;;;;;33.20;64.30;;;;;;5056644;28;19913;-84